PWSweather.com
Personal Weather Stations
Station Observations
KNYSALTS1
Hessville, Fort Plain, NY

HessvilleFort Plain, NY

Lat: 42.86430704, Lon: -74.72141266

Elevation: 1041

Station Type: Davis Vantage Pro2 Plus

http://indiantrailweather.com

Latest ConditionsUpdated 6:40:10 PM EST Sunday, Nov 18, 2018
Currently Today's Max Today's Min Today's Average
Temperature 27.5°F-2.5°C 31.6°F-0.2°C 24.4°F-4.2°C 28.3°F-2.1°C
Dew Point 26.5°F-3.1°C 26.6°F-3.0°C 19.9°F-6.7°C 23.2°F-4.9°C
Winds 3.5 mph E5.6 kmh E 16.1 mph -25.9 kmh - - 4.8 mph 7.7 kmh
Wind Gusts 3.5 mph5.6 kmh 20.7 mph33.3 kmh - -
Humidity 96% 96% 66% 81%
Pressure 30.26 in1024.7 mb 30.37 in1028.4 mb 30.26 in1024.7 mb -
Precipitation - 0.02 in0.5 mm - -
Hour Temp Dew Point Humidity Winds Wind Gusts Pressure Precip Precip Rate Daily Precip Total
06:40 PM 27.5°F-2.5°C 26.5°F-3.1°C 96% 3.5 mph E5.6 kmh E 3.5 mph5.6 kmh 30.26 in1024.7 mb - 0.01 in0.3 mm 0.02 in0.5 mm
06:30 PM 27.6°F-2.4°C 26.6°F-3.0°C 96% 2.3 mph E3.7 kmh E 2.3 mph3.7 kmh 30.26 in1024.7 mb - 0.01 in0.3 mm 0.02 in0.5 mm
06:20 PM 27.6°F-2.4°C 26.6°F-3.0°C 96% 3.5 mph E5.6 kmh E 4.6 mph7.4 kmh 30.27 in1025.1 mb - 0.01 in0.3 mm 0.02 in0.5 mm
06:10 PM 27.5°F-2.5°C 26.5°F-3.1°C 96% Calm Calm -- 30.26 in1024.7 mb - 0.01 in0.3 mm 0.02 in0.5 mm
06:00 PM 27.4°F-2.6°C 26.4°F-3.1°C 96% Calm Calm -- 30.27 in1025.1 mb - 0.02 in0.5 mm 0.02 in0.5 mm
05:50 PM 27.4°F-2.6°C 26.4°F-3.1°C 96% 3.5 mph E5.6 kmh E 3.5 mph5.6 kmh 30.27 in1025.1 mb - 0.02 in0.5 mm 0.02 in0.5 mm
05:40 PM 27.3°F-2.6°C 26.3°F-3.2°C 96% 3.5 mph E5.6 kmh E 3.5 mph5.6 kmh 30.27 in1025.1 mb - 0.01 in0.3 mm 0.01 in0.3 mm
05:30 PM 27.3°F-2.6°C 26.3°F-3.2°C 96% 3.5 mph E5.6 kmh E 4.6 mph7.4 kmh 30.27 in1025.1 mb - 0.01 in0.3 mm 0.01 in0.3 mm
05:20 PM 27.4°F-2.6°C 26.1°F-3.3°C 95% 3.5 mph E5.6 kmh E 3.5 mph5.6 kmh 30.27 in1025.1 mb - 0.01 in0.3 mm 0.01 in0.3 mm
05:10 PM 27.3°F-2.6°C 26.1°F-3.3°C 95% 3.5 mph E5.6 kmh E 3.5 mph5.6 kmh 30.27 in1025.1 mb - 0.01 in0.3 mm 0.01 in0.3 mm
05:00 PM 27.3°F-2.6°C 26.1°F-3.3°C 95% 3.5 mph E5.6 kmh E 4.6 mph7.4 kmh 30.28 in1025.4 mb - 0.00 in0.0 mm 0.00 in0.0 mm
04:50 PM 27.4°F-2.6°C 25.9°F-3.4°C 94% 3.5 mph E5.6 kmh E 4.6 mph7.4 kmh 30.28 in1025.4 mb - 0.00 in0.0 mm 0.00 in0.0 mm
04:40 PM 27.4°F-2.6°C 25.9°F-3.4°C 94% 3.5 mph E5.6 kmh E 3.5 mph5.6 kmh 30.28 in1025.4 mb - 0.00 in0.0 mm 0.00 in0.0 mm
04:30 PM 27.4°F-2.6°C 25.9°F-3.4°C 94% 3.5 mph E5.6 kmh E 4.6 mph7.4 kmh 30.28 in1025.4 mb - 0.00 in0.0 mm 0.00 in0.0 mm
04:20 PM 27.5°F-2.5°C 25.7°F-3.5°C 93% 4.6 mph E7.4 kmh E 4.6 mph7.4 kmh 30.28 in1025.4 mb - 0.00 in0.0 mm 0.00 in0.0 mm
04:10 PM 27.6°F-2.4°C 25.8°F-3.4°C 93% 6.9 mph E11.1 kmh E 8.1 mph13.0 kmh 30.28 in1025.4 mb - 0.00 in0.0 mm 0.00 in0.0 mm
04:00 PM 27.7°F-2.4°C 25.7°F-3.5°C 92% 3.5 mph E5.6 kmh E 3.5 mph5.6 kmh 30.28 in1025.4 mb - 0.00 in0.0 mm 0.00 in0.0 mm
03:50 PM 28.1°F-2.2°C 26.1°F-3.3°C 92% 5.8 mph E9.3 kmh E 5.8 mph9.3 kmh 30.28 in1025.4 mb - 0.00 in0.0 mm 0.00 in0.0 mm
03:40 PM 28.3°F-2.1°C 26.1°F-3.3°C 91% 6.9 mph E11.1 kmh E 8.1 mph13.0 kmh 30.28 in1025.4 mb - 0.00 in0.0 mm 0.00 in0.0 mm
03:30 PM 28.5°F-1.9°C 25.9°F-3.4°C 90% 3.5 mph E5.6 kmh E 4.6 mph7.4 kmh 30.29 in1025.7 mb - 0.00 in0.0 mm 0.00 in0.0 mm
03:20 PM 28.5°F-1.9°C 25.9°F-3.4°C 90% 5.8 mph E9.3 kmh E 4.6 mph7.4 kmh 30.29 in1025.7 mb - 0.00 in0.0 mm 0.00 in0.0 mm
03:10 PM 28.5°F-1.9°C 25.9°F-3.4°C 90% 4.6 mph E7.4 kmh E 5.8 mph9.3 kmh 30.29 in1025.7 mb - 0.00 in0.0 mm 0.00 in0.0 mm
03:00 PM 28.6°F-1.9°C 25.8°F-3.4°C 89% 6.9 mph E11.1 kmh E 5.8 mph9.3 kmh 30.29 in1025.7 mb - 0.00 in0.0 mm 0.00 in0.0 mm
02:50 PM 28.9°F-1.7°C 25.8°F-3.4°C 88% 9.2 mph E14.8 kmh E 8.1 mph13.0 kmh 30.29 in1025.7 mb - 0.00 in0.0 mm 0.00 in0.0 mm
02:40 PM 29.3°F-1.5°C 25.9°F-3.4°C 87% 4.6 mph ESE7.4 kmh ESE 6.9 mph11.1 kmh 30.30 in1026.1 mb - 0.00 in0.0 mm 0.00 in0.0 mm
02:30 PM 29.8°F-1.2°C 25.8°F-3.4°C 85% 4.6 mph ESE7.4 kmh ESE 4.6 mph7.4 kmh 30.30 in1026.1 mb - 0.00 in0.0 mm 0.00 in0.0 mm
02:20 PM 30.4°F-0.9°C 25.6°F-3.6°C 82% 5.8 mph ESE9.3 kmh ESE 6.9 mph11.1 kmh 30.30 in1026.1 mb - 0.00 in0.0 mm 0.00 in0.0 mm
02:10 PM 30.8°F-0.7°C 25.4°F-3.7°C 80% 2.3 mph ESE3.7 kmh ESE 2.3 mph3.7 kmh 30.30 in1026.1 mb - 0.00 in0.0 mm 0.00 in0.0 mm
02:00 PM 30.6°F-0.8°C 25.1°F-3.8°C 80% 1.2 mph ESE1.9 kmh ESE 1.2 mph1.9 kmh 30.30 in1026.1 mb - 0.00 in0.0 mm 0.00 in0.0 mm
01:50 PM 30.3°F-0.9°C 24.6°F-4.1°C 79% 3.5 mph ESE5.6 kmh ESE 3.5 mph5.6 kmh 30.30 in1026.1 mb - 0.00 in0.0 mm 0.00 in0.0 mm
01:40 PM 30.7°F-0.7°C 24.4°F-4.2°C 77% 6.9 mph ESE11.1 kmh ESE 8.1 mph13.0 kmh 30.30 in1026.1 mb - 0.00 in0.0 mm 0.00 in0.0 mm
01:30 PM 30.7°F-0.7°C 23.7°F-4.6°C 75% 4.6 mph ENE7.4 kmh ENE 5.8 mph9.3 kmh 30.30 in1026.1 mb - 0.00 in0.0 mm 0.00 in0.0 mm
01:20 PM 30.6°F-0.8°C 23.6°F-4.7°C 75% 3.5 mph ENE5.6 kmh ENE 3.5 mph5.6 kmh 30.30 in1026.1 mb - 0.00 in0.0 mm 0.00 in0.0 mm
01:10 PM 30.9°F-0.6°C 23.6°F-4.7°C 74% 4.6 mph ENE7.4 kmh ENE 4.6 mph7.4 kmh 30.31 in1026.4 mb - 0.00 in0.0 mm 0.00 in0.0 mm
01:00 PM 31.3°F-0.4°C 23.3°F-4.8°C 72% 6.9 mph ENE11.1 kmh ENE 10.4 mph16.7 kmh 30.31 in1026.4 mb - 0.00 in0.0 mm 0.00 in0.0 mm
12:50 PM 31.1°F-0.5°C 23.1°F-4.9°C 72% 4.6 mph ENE7.4 kmh ENE 9.2 mph14.8 kmh 30.32 in1026.8 mb - 0.00 in0.0 mm 0.00 in0.0 mm
12:40 PM 30.8°F-0.7°C 22.5°F-5.3°C 71% 6.9 mph ENE11.1 kmh ENE 6.9 mph11.1 kmh 30.32 in1026.8 mb - 0.00 in0.0 mm 0.00 in0.0 mm
12:30 PM 30.8°F-0.7°C 22.2°F-5.4°C 70% 5.8 mph ENE9.3 kmh ENE 6.9 mph11.1 kmh 30.32 in1026.8 mb - 0.00 in0.0 mm 0.00 in0.0 mm
12:20 PM 30.9°F-0.6°C 22.3°F-5.4°C 70% 5.8 mph ENE9.3 kmh ENE 5.8 mph9.3 kmh 30.32 in1026.8 mb - 0.00 in0.0 mm 0.00 in0.0 mm
12:10 PM 30.9°F-0.6°C 22.6°F-5.2°C 71% 8.1 mph E13.0 kmh E 9.2 mph14.8 kmh 30.32 in1026.8 mb - 0.00 in0.0 mm 0.00 in0.0 mm
12:00 PM 31.2°F-0.4°C 22.2°F-5.4°C 69% 6.9 mph E11.1 kmh E 9.2 mph14.8 kmh 30.33 in1027.1 mb - 0.00 in0.0 mm 0.00 in0.0 mm
11:50 AM 31.0°F-0.6°C 22.4°F-5.3°C 70% 4.6 mph E7.4 kmh E 8.1 mph13.0 kmh 30.33 in1027.1 mb - 0.00 in0.0 mm 0.00 in0.0 mm
11:40 AM 30.8°F-0.7°C 21.5°F-5.8°C 68% 4.6 mph E7.4 kmh E 3.5 mph5.6 kmh 30.33 in1027.1 mb - 0.00 in0.0 mm 0.00 in0.0 mm
11:30 AM 30.9°F-0.6°C 22.3°F-5.4°C 70% 5.8 mph ESE9.3 kmh ESE 6.9 mph11.1 kmh 30.34 in1027.4 mb - 0.00 in0.0 mm 0.00 in0.0 mm
11:20 AM 31.2°F-0.4°C 21.8°F-5.7°C 68% 5.8 mph E9.3 kmh E 8.1 mph13.0 kmh 30.34 in1027.4 mb - 0.00 in0.0 mm 0.00 in0.0 mm
11:10 AM 31.6°F-0.2°C 21.9°F-5.6°C 67% 3.5 mph E5.6 kmh E 4.6 mph7.4 kmh 30.35 in1027.8 mb - 0.00 in0.0 mm 0.00 in0.0 mm
11:00 AM 31.2°F-0.4°C 21.5°F-5.8°C 67% 3.5 mph E5.6 kmh E 3.5 mph5.6 kmh 30.35 in1027.8 mb - 0.00 in0.0 mm 0.00 in0.0 mm
10:50 AM 31.5°F-0.3°C 21.4°F-5.9°C 66% 4.6 mph E7.4 kmh E 5.8 mph9.3 kmh 30.36 in1028.1 mb - 0.00 in0.0 mm 0.00 in0.0 mm
10:40 AM 30.8°F-0.7°C 21.1°F-6.1°C 67% 1.2 mph E1.9 kmh E 2.3 mph3.7 kmh 30.36 in1028.1 mb - 0.00 in0.0 mm 0.00 in0.0 mm
10:30 AM 30.5°F-0.8°C 20.8°F-6.2°C 67% 3.5 mph E5.6 kmh E 5.8 mph9.3 kmh 30.36 in1028.1 mb - 0.00 in0.0 mm 0.00 in0.0 mm
10:20 AM 29.9°F-1.2°C 20.3°F-6.5°C 67% 2.3 mph E3.7 kmh E 4.6 mph7.4 kmh 30.37 in1028.4 mb - 0.00 in0.0 mm 0.00 in0.0 mm
10:10 AM 30.3°F-0.9°C 22.4°F-5.3°C 72% 3.5 mph E5.6 kmh E 3.5 mph5.6 kmh 30.37 in1028.4 mb - 0.00 in0.0 mm 0.00 in0.0 mm
10:00 AM 30.3°F-0.9°C 22.4°F-5.3°C 72% 4.6 mph E7.4 kmh E 4.6 mph7.4 kmh 30.37 in1028.4 mb - 0.00 in0.0 mm 0.00 in0.0 mm
09:50 AM 29.7°F-1.3°C 22.7°F-5.2°C 75% 3.5 mph E5.6 kmh E 2.3 mph3.7 kmh 30.37 in1028.4 mb - 0.00 in0.0 mm 0.00 in0.0 mm
09:40 AM 29.4°F-1.4°C 23.1°F-4.9°C 77% 3.5 mph E5.6 kmh E 3.5 mph5.6 kmh 30.37 in1028.4 mb - 0.00 in0.0 mm 0.00 in0.0 mm
09:30 AM 28.6°F-1.9°C 22.9°F-5.1°C 79% Calm Calm -- 30.37 in1028.4 mb - 0.00 in0.0 mm 0.00 in0.0 mm
09:20 AM 28.5°F-1.9°C 22.8°F-5.1°C 79% 3.5 mph SE5.6 kmh SE 5.8 mph9.3 kmh 30.36 in1028.1 mb - 0.00 in0.0 mm 0.00 in0.0 mm
09:10 AM 28.7°F-1.8°C 22.7°F-5.2°C 78% 2.3 mph S3.7 kmh S 2.3 mph3.7 kmh 30.37 in1028.4 mb - 0.00 in0.0 mm 0.00 in0.0 mm
09:00 AM 29.4°F-1.4°C 22.7°F-5.2°C 76% 2.3 mph S3.7 kmh S 2.3 mph3.7 kmh 30.37 in1028.4 mb - 0.00 in0.0 mm 0.00 in0.0 mm
08:50 AM 29.4°F-1.4°C 23.4°F-4.8°C 78% Calm Calm -- 30.37 in1028.4 mb - 0.00 in0.0 mm 0.00 in0.0 mm
08:40 AM 28.2°F-2.1°C 22.5°F-5.3°C 79% Calm Calm -- 30.37 in1028.4 mb - 0.00 in0.0 mm 0.00 in0.0 mm
08:30 AM 27.9°F-2.3°C 22.5°F-5.3°C 80% Calm Calm -- 30.37 in1028.4 mb - 0.00 in0.0 mm 0.00 in0.0 mm
08:20 AM 27.1°F-2.7°C 22.6°F-5.2°C 83% Calm Calm -- 30.37 in1028.4 mb - 0.00 in0.0 mm 0.00 in0.0 mm
08:10 AM 25.9°F-3.4°C 21.7°F-5.7°C 84% Calm Calm -- 30.37 in1028.4 mb - 0.00 in0.0 mm 0.00 in0.0 mm
08:00 AM 25.2°F-3.8°C 21.0°F-6.1°C 84% Calm Calm -- 30.37 in1028.4 mb - 0.00 in0.0 mm 0.00 in0.0 mm
07:50 AM 25.0°F-3.9°C 21.1°F-6.1°C 85% 2.3 mph WSW3.7 kmh WSW 2.3 mph3.7 kmh 30.37 in1028.4 mb - 0.00 in0.0 mm 0.00 in0.0 mm
07:40 AM 24.8°F-4.0°C 20.6°F-6.3°C 84% 2.3 mph WSW3.7 kmh WSW 2.3 mph3.7 kmh 30.37 in1028.4 mb - 0.00 in0.0 mm 0.00 in0.0 mm
07:30 AM 25.2°F-3.8°C 21.1°F-6.1°C 84% 2.3 mph WSW3.7 kmh WSW 3.5 mph5.6 kmh 30.37 in1028.4 mb - 0.00 in0.0 mm 0.00 in0.0 mm
07:20 AM 25.4°F-3.7°C 20.9°F-6.2°C 83% Calm Calm -- 30.36 in1028.1 mb - 0.00 in0.0 mm 0.00 in0.0 mm
07:10 AM 25.3°F-3.7°C 21.1°F-6.1°C 84% Calm Calm -- 30.36 in1028.1 mb - 0.00 in0.0 mm 0.00 in0.0 mm
07:00 AM 25.9°F-3.4°C 21.4°F-5.9°C 83% Calm Calm -- 30.36 in1028.1 mb - 0.00 in0.0 mm 0.00 in0.0 mm
06:50 AM 26.0°F-3.3°C 21.3°F-5.9°C 82% Calm Calm -- 30.36 in1028.1 mb - 0.00 in0.0 mm 0.00 in0.0 mm
06:40 AM 26.1°F-3.3°C 21.4°F-5.9°C 82% Calm Calm -- 30.36 in1028.1 mb - 0.00 in0.0 mm 0.00 in0.0 mm
06:30 AM 25.5°F-3.6°C 21.1°F-6.1°C 83% Calm Calm -- 30.36 in1028.1 mb - 0.00 in0.0 mm 0.00 in0.0 mm
06:20 AM 25.2°F-3.8°C 20.8°F-6.2°C 83% 2.3 mph WSW3.7 kmh WSW 2.3 mph3.7 kmh 30.35 in1027.8 mb - 0.00 in0.0 mm 0.00 in0.0 mm
06:10 AM 25.3°F-3.7°C 20.9°F-6.2°C 83% 2.3 mph WSW3.7 kmh WSW 2.3 mph3.7 kmh 30.36 in1028.1 mb - 0.00 in0.0 mm 0.00 in0.0 mm
06:00 AM 25.0°F-3.9°C 20.8°F-6.2°C 84% 2.3 mph WSW3.7 kmh WSW 2.3 mph3.7 kmh 30.35 in1027.8 mb - 0.00 in0.0 mm 0.00 in0.0 mm
05:50 AM 24.9°F-3.9°C 20.5°F-6.4°C 83% 2.3 mph WSW3.7 kmh WSW 2.3 mph3.7 kmh 30.35 in1027.8 mb - 0.00 in0.0 mm 0.00 in0.0 mm
05:40 AM 24.4°F-4.2°C 20.2°F-6.6°C 84% 2.3 mph WSW3.7 kmh WSW 2.3 mph3.7 kmh 30.35 in1027.8 mb - 0.00 in0.0 mm 0.00 in0.0 mm
05:30 AM 24.6°F-4.1°C 19.9°F-6.7°C 82% 3.5 mph WSW5.6 kmh WSW 3.5 mph5.6 kmh 30.35 in1027.8 mb - 0.00 in0.0 mm 0.00 in0.0 mm
05:20 AM 25.3°F-3.7°C 20.5°F-6.4°C 82% 3.5 mph WSW5.6 kmh WSW 3.5 mph5.6 kmh 30.35 in1027.8 mb - 0.00 in0.0 mm 0.00 in0.0 mm
05:10 AM 25.1°F-3.8°C 20.4°F-6.4°C 82% 2.3 mph WSW3.7 kmh WSW 2.3 mph3.7 kmh 30.35 in1027.8 mb - 0.00 in0.0 mm 0.00 in0.0 mm
05:00 AM 25.0°F-3.9°C 20.2°F-6.6°C 82% 5.8 mph WSW9.3 kmh WSW 8.1 mph13.0 kmh 30.35 in1027.8 mb - 0.00 in0.0 mm 0.00 in0.0 mm
04:50 AM 25.4°F-3.7°C 20.4°F-6.4°C 81% 5.8 mph WSW9.3 kmh WSW 5.8 mph9.3 kmh 30.34 in1027.4 mb - 0.00 in0.0 mm 0.00 in0.0 mm
04:40 AM 25.2°F-3.8°C 20.5°F-6.4°C 82% 4.6 mph WSW7.4 kmh WSW 8.1 mph13.0 kmh 30.34 in1027.4 mb - 0.00 in0.0 mm 0.00 in0.0 mm
04:30 AM 25.5°F-3.6°C 20.5°F-6.4°C 81% 4.6 mph WSW7.4 kmh WSW 4.6 mph7.4 kmh 30.33 in1027.1 mb - 0.00 in0.0 mm 0.00 in0.0 mm
04:20 AM 26.1°F-3.3°C 20.8°F-6.2°C 80% 5.8 mph WSW9.3 kmh WSW 5.8 mph9.3 kmh 30.33 in1027.1 mb - 0.00 in0.0 mm 0.00 in0.0 mm
04:10 AM 26.3°F-3.2°C 21.3°F-5.9°C 81% 3.5 mph WSW5.6 kmh WSW 4.6 mph7.4 kmh 30.32 in1026.8 mb - 0.00 in0.0 mm 0.00 in0.0 mm
04:00 AM 26.7°F-2.9°C 21.4°F-5.9°C 80% 5.8 mph WSW9.3 kmh WSW 5.8 mph9.3 kmh 30.32 in1026.8 mb - 0.00 in0.0 mm 0.00 in0.0 mm
03:50 AM 27.3°F-2.6°C 21.9°F-5.6°C 80% 6.9 mph WSW11.1 kmh WSW 8.1 mph13.0 kmh 30.33 in1027.1 mb - 0.00 in0.0 mm 0.00 in0.0 mm
03:40 AM 27.3°F-2.6°C 21.9°F-5.6°C 80% 9.2 mph W14.8 kmh W 9.2 mph14.8 kmh 30.33 in1027.1 mb - 0.00 in0.0 mm 0.00 in0.0 mm
03:30 AM 27.4°F-2.6°C 22.1°F-5.5°C 80% 6.9 mph WSW11.1 kmh WSW 5.8 mph9.3 kmh 30.33 in1027.1 mb - 0.00 in0.0 mm 0.00 in0.0 mm
03:20 AM 27.3°F-2.6°C 21.6°F-5.8°C 79% 9.2 mph WSW14.8 kmh WSW 11.5 mph18.5 kmh 30.33 in1027.1 mb - 0.00 in0.0 mm 0.00 in0.0 mm
03:10 AM 27.3°F-2.6°C 21.7°F-5.7°C 79% 9.2 mph W14.8 kmh W 9.2 mph14.8 kmh 30.33 in1027.1 mb - 0.00 in0.0 mm 0.00 in0.0 mm
03:00 AM 27.1°F-2.7°C 21.5°F-5.8°C 79% 6.9 mph W11.1 kmh W 9.2 mph14.8 kmh 30.34 in1027.4 mb - 0.00 in0.0 mm 0.00 in0.0 mm
02:50 AM 27.1°F-2.7°C 21.2°F-6.0°C 78% 6.9 mph W11.1 kmh W 10.4 mph16.7 kmh 30.33 in1027.1 mb - 0.00 in0.0 mm 0.00 in0.0 mm
02:40 AM 27.7°F-2.4°C 21.4°F-5.9°C 77% 10.4 mph WSW16.7 kmh WSW 12.7 mph20.4 kmh 30.33 in1027.1 mb - 0.00 in0.0 mm 0.00 in0.0 mm
02:30 AM 28.1°F-2.2°C 21.8°F-5.7°C 77% 13.8 mph WNW22.2 kmh WNW 15.0 mph24.1 kmh 30.33 in1027.1 mb - 0.00 in0.0 mm 0.00 in0.0 mm
02:20 AM 28.2°F-2.1°C 22.2°F-5.4°C 78% 10.4 mph WNW16.7 kmh WNW 10.4 mph16.7 kmh 30.33 in1027.1 mb - 0.00 in0.0 mm 0.00 in0.0 mm
02:10 AM 28.5°F-1.9°C 22.8°F-5.1°C 79% 5.8 mph W9.3 kmh W 13.8 mph22.2 kmh 30.33 in1027.1 mb - 0.00 in0.0 mm 0.00 in0.0 mm
02:00 AM 28.6°F-1.9°C 22.7°F-5.2°C 78% 11.5 mph WNW18.5 kmh WNW 11.5 mph18.5 kmh 30.33 in1027.1 mb - 0.00 in0.0 mm 0.00 in0.0 mm
01:50 AM 28.9°F-1.7°C 22.9°F-5.1°C 78% 9.2 mph W14.8 kmh W 12.7 mph20.4 kmh 30.32 in1026.8 mb - 0.00 in0.0 mm 0.00 in0.0 mm
01:40 AM 29.1°F-1.6°C 22.8°F-5.1°C 77% 11.5 mph W18.5 kmh W 15.0 mph24.1 kmh 30.31 in1026.4 mb - 0.00 in0.0 mm 0.00 in0.0 mm
01:30 AM 29.4°F-1.4°C 23.1°F-4.9°C 77% 10.4 mph WNW16.7 kmh WNW 13.8 mph22.2 kmh 30.31 in1026.4 mb - 0.00 in0.0 mm 0.00 in0.0 mm
01:20 AM 29.7°F-1.3°C 23.4°F-4.8°C 77% 15.0 mph WNW24.1 kmh WNW 16.1 mph25.9 kmh 30.31 in1026.4 mb - 0.00 in0.0 mm 0.00 in0.0 mm
01:10 AM 30.0°F-1.1°C 24.0°F-4.4°C 78% 16.1 mph WNW25.9 kmh WNW 17.3 mph27.8 kmh 30.30 in1026.1 mb - 0.00 in0.0 mm 0.00 in0.0 mm
01:00 AM 30.2°F-1.0°C 24.5°F-4.2°C 79% 10.4 mph WNW16.7 kmh WNW 18.4 mph29.6 kmh 30.30 in1026.1 mb - 0.00 in0.0 mm 0.00 in0.0 mm
12:50 AM 30.4°F-0.9°C 25.0°F-3.9°C 80% 6.9 mph WNW11.1 kmh WNW 9.2 mph14.8 kmh 30.30 in1026.1 mb - 0.00 in0.0 mm 0.00 in0.0 mm
12:40 AM 30.5°F-0.8°C 25.1°F-3.8°C 80% 4.6 mph WNW7.4 kmh WNW 4.6 mph7.4 kmh 30.30 in1026.1 mb - 0.00 in0.0 mm 0.00 in0.0 mm
12:30 AM 30.7°F-0.7°C 25.3°F-3.7°C 80% 8.1 mph NW13.0 kmh NW 6.9 mph11.1 kmh 30.29 in1025.7 mb - 0.00 in0.0 mm 0.00 in0.0 mm
12:20 AM 31.0°F-0.6°C 25.2°F-3.8°C 79% 10.4 mph WNW16.7 kmh WNW 11.5 mph18.5 kmh 30.29 in1025.7 mb - 0.00 in0.0 mm 0.00 in0.0 mm
12:10 AM 31.3°F-0.4°C 25.5°F-3.6°C 79% 12.7 mph NW20.4 kmh NW 20.7 mph33.3 kmh 30.29 in1025.7 mb - 0.00 in0.0 mm 0.00 in0.0 mm
12:00 AM 31.5°F-0.3°C 26.0°F-3.3°C 80% 12.7 mph NW20.4 kmh NW 15.0 mph24.1 kmh 30.28 in1025.4 mb - 0.00 in0.0 mm 0.00 in0.0 mm